Archiv-/Tagesdaten

--Timestamp---	Temp	Chill	HIndex	Humid	Dewpt	Wind	HiWind	WindDir	Rain	Barom	Solar	ET	UV
--------------	----	-----	------	-----	-----	----	------	-------	----	-----	-----	--	--
20080425 00:05	7.3	7.3	7.3	92	6.1	3	6	202	0.00	1024.521	0	0.000	0
20080425 00:10	7.3	7.3	7.3	92	6.1	2	8	180	0.00	1024.623	0	0.000	0
20080425 00:15	7.2	7.2	7.2	92	6.0	3	11	202	0.00	1024.656	0	0.000	0
20080425 00:20	7.2	7.2	7.2	92	6.0	3	8	202	0.00	1024.656	0	0.000	0
20080425 00:25	7.2	7.2	7.2	92	6.0	3	11	202	0.00	1024.724	0	0.000	0
20080425 00:30	7.1	7.1	7.1	92	5.9	3	8	202	0.00	1024.724	0	0.000	0
20080425 00:35	7.1	7.1	7.1	92	5.8	3	8	180	0.00	1024.792	0	0.000	0
20080425 00:40	7.1	7.1	7.1	92	5.9	5	8	180	0.00	1024.859	0	0.000	0
20080425 00:45	7.1	7.1	7.1	92	5.9	2	8	180	0.00	1024.724	0	0.000	0
20080425 00:50	7.2	7.2	7.2	92	6.0	2	8	180	0.00	1024.724	0	0.000	0
20080425 00:55	7.2	7.2	7.2	92	6.0	3	10	202	0.00	1024.859	0	0.000	0
20080425 01:00	7.2	7.2	7.2	92	6.0	5	10	202	0.00	1024.792	0	0.000	0
20080425 01:05	7.2	7.2	7.2	92	6.0	3	6	180	0.00	1024.792	0	0.000	0
20080425 01:10	7.2	7.2	7.2	92	6.0	3	6	180	0.00	1024.792	0	0.000	0
20080425 01:15	7.2	7.2	7.2	92	6.0	3	10	202	0.00	1024.792	0	0.000	0
20080425 01:20	7.2	7.2	7.2	92	6.0	5	8	202	0.00	1024.826	0	0.000	0
20080425 01:25	7.2	7.2	7.2	92	6.0	5	8	202	0.00	1024.826	0	0.000	0
20080425 01:30	7.2	7.2	7.2	92	6.0	3	10	180	0.00	1024.826	0	0.000	0
20080425 01:35	7.3	7.3	7.3	92	6.1	3	8	180	0.00	1024.859	0	0.000	0
20080425 01:40	7.3	7.3	7.3	92	6.1	2	6	180	0.00	1024.859	0	0.000	0
20080425 01:45	7.3	7.3	7.3	93	6.3	2	6	180	0.00	1024.792	0	0.000	0
20080425 01:50	7.4	7.4	7.4	92	6.2	0	3	180	0.00	1024.690	0	0.000	0
20080425 01:55	7.4	7.4	7.4	93	6.4	0	2	180	0.00	1024.487	0	0.000	0
20080425 02:00	7.5	7.5	7.5	93	6.4	2	5	180	0.00	1024.453	0	0.000	0
20080425 02:05	7.6	7.6	7.6	92	6.3	5	10	202	0.00	1024.758	0	0.000	0
20080425 02:10	7.6	7.6	7.6	92	6.4	5	10	202	0.00	1024.758	0	0.000	0
20080425 02:15	7.6	7.6	7.6	92	6.4	3	11	202	0.00	1024.724	0	0.000	0
20080425 02:20	7.6	7.6	7.6	92	6.4	5	10	225	0.00	1024.724	0	0.000	0
20080425 02:25	7.6	7.6	7.6	92	6.4	5	16	202	0.00	1024.724	0	0.000	0
20080425 02:30	7.7	7.7	7.7	92	6.4	5	10	202	0.00	1024.690	0	0.000	0
20080425 02:35	7.7	7.7	7.7	92	6.4	5	8	202	0.00	1024.690	0	0.000	0
20080425 02:40	7.7	6.7	7.7	92	6.4	6	10	202	0.00	1024.623	0	0.000	0
20080425 02:45	7.7	7.7	7.7	92	6.4	3	8	202	0.00	1024.656	0	0.000	0
20080425 02:50	7.7	7.7	7.7	92	6.4	5	10	202	0.00	1024.589	0	0.000	0
20080425 02:55	7.7	7.7	7.7	92	6.4	5	10	202	0.00	1024.589	0	0.000	0
20080425 03:00	7.7	7.7	7.7	92	6.4	3	11	202	0.00	1024.690	0	0.000	0
20080425 03:05	7.7	7.7	7.7	92	6.4	2	8	202	0.00	1024.792	0	0.000	0
20080425 03:10	7.7	7.7	7.7	92	6.4	3	10	225	0.00	1024.758	0	0.000	0
20080425 03:15	7.7	7.7	7.7	92	6.5	3	8	225	0.00	1024.758	0	0.000	0
20080425 03:20	7.8	7.8	7.8	92	6.6	2	6	225	0.00	1024.792	0	0.000	0
20080425 03:25	7.8	7.8	7.8	92	6.6	3	8	247	0.00	1024.792	0	0.000	0
20080425 03:30	8.0	8.0	8.0	92	6.8	5	10	225	0.00	1024.792	0	0.000	0
20080425 03:35	8.1	8.1	8.1	91	6.7	3	11	225	0.00	1024.792	0	0.000	0
20080425 03:40	8.1	8.1	8.1	91	6.7	5	11	247	0.00	1024.792	0	0.000	0
20080425 03:45	8.1	8.1	8.1	91	6.7	5	11	225	0.00	1024.758	0	0.000	0
20080425 03:50	8.1	8.1	8.1	91	6.7	5	11	247	0.00	1024.758	0	0.000	0
20080425 03:55	8.1	8.1	8.1	90	6.6	5	11	247	0.00	1024.656	0	0.000	0
20080425 04:00	8.1	8.1	8.1	90	6.5	5	10	247	0.00	1024.758	0	0.000	0
20080425 04:05	8.0	8.0	8.0	90	6.5	3	8	247	0.00	1024.656	0	0.000	0
20080425 04:10	7.9	7.9	7.9	90	6.4	3	8	225	0.00	1024.758	0	0.000	0
20080425 04:15	7.9	7.0	7.9	90	6.4	6	11	225	0.00	1024.656	0	0.000	0
20080425 04:20	7.9	7.9	7.9	90	6.4	5	14	247	0.00	1024.690	0	0.000	0
20080425 04:25	7.9	7.9	7.9	90	6.4	3	14	225	0.00	1024.623	0	0.000	0
20080425 04:30	7.8	7.8	7.8	90	6.3	5	10	225	0.00	1024.758	0	0.000	0
20080425 04:35	7.8	7.8	7.8	90	6.2	3	6	247	0.00	1024.656	0	0.000	0
20080425 04:40	7.8	7.8	7.8	90	6.2	3	8	247	0.00	1024.589	0	0.000	0
20080425 04:45	7.8	7.8	7.8	90	6.2	3	10	202	0.00	1024.623	0	0.000	0
20080425 04:50	7.8	7.8	7.8	90	6.2	5	16	247	0.00	1024.623	0	0.000	0
20080425 04:55	7.9	7.9	7.9	90	6.4	5	14	247	0.00	1024.589	0	0.000	0
20080425 05:00	7.9	7.9	7.9	90	6.4	5	14	225	0.00	1024.419	0	0.000	0
20080425 05:05	7.9	7.0	7.9	90	6.4	6	11	247	0.00	1024.690	0	0.000	0
20080425 05:10	7.9	7.9	7.9	89	6.2	5	13	247	0.00	1024.724	0	0.000	0
20080425 05:15	7.9	7.9	7.9	89	6.2	3	11	247	0.00	1024.656	0	0.000	0
20080425 05:20	7.9	7.9	7.9	89	6.2	5	11	247	0.00	1024.589	0	0.000	0
20080425 05:25	7.8	7.8	7.8	89	6.1	5	10	247	0.00	1024.589	0	0.000	0
20080425 05:30	7.8	7.8	7.8	89	6.1	5	11	225	0.00	1024.589	0	0.000	0
20080425 05:35	7.8	7.8	7.8	89	6.1	5	10	225	0.00	1024.623	0	0.000	0
20080425 05:40	7.7	7.7	7.7	89	6.0	5	14	247	0.00	1024.589	0	0.000	0
20080425 05:45	7.7	7.7	7.7	89	6.0	5	11	247	0.00	1024.589	0	0.000	0
20080425 05:50	7.8	7.8	7.8	90	6.2	5	10	247	0.00	1024.927	0	0.000	0
20080425 05:55	7.8	6.5	7.8	90	6.3	8	19	270	0.00	1025.469	0	0.000	0
20080425 06:00	7.8	5.8	7.8	90	6.3	11	19	270	0.20	1025.604	0	0.000	0
20080425 06:05	7.9	6.5	7.9	90	6.4	8	18	270	0.00	1025.401	0	0.000	0
20080425 06:10	7.9	7.0	7.9	90	6.4	6	11	247	0.20	1025.469	0	0.000	0
20080425 06:15	7.9	7.0	7.9	90	6.4	6	14	247	0.00	1025.063	0	0.000	0
20080425 06:20	8.0	8.0	8.0	90	6.5	5	16	225	0.20	1024.893	0	0.000	0
20080425 06:25	8.0	6.7	8.0	89	6.3	8	21	247	0.00	1024.995	0	0.000	0
20080425 06:30	7.9	6.6	7.9	88	6.1	8	21	247	0.00	1024.961	1	0.000	0
20080425 06:35	7.9	7.0	7.9	87	5.9	6	16	247	0.00	1024.927	7	0.000	0
20080425 06:40	7.9	7.0	7.9	87	5.9	6	16	247	0.00	1024.995	11	0.000	0
20080425 06:45	7.9	6.6	7.9	87	5.9	8	16	225	0.00	1025.029	13	0.000	0
20080425 06:50	7.9	6.9	7.9	87	5.9	6	18	247	0.00	1025.029	12	0.000	0
20080425 06:55	7.9	7.9	7.9	87	5.9	5	11	247	0.00	1025.130	21	0.000	0
20080425 07:00	7.9	7.9	7.9	87	5.9	5	10	225	0.00	1025.063	30	0.000	0
20080425 07:05	7.9	7.9	7.9	87	5.9	5	10	225	0.00	1025.164	13	0.000	0
20080425 07:10	7.9	7.9	7.9	87	5.9	3	14	247	0.00	1025.300	7	0.000	0
20080425 07:15	7.8	7.8	7.8	87	5.8	3	8	247	0.20	1025.367	9	0.000	0
20080425 07:20	7.9	5.9	7.9	86	5.7	11	35	270	0.00	1025.638	12	0.000	0
20080425 07:25	8.1	5.7	8.1	88	6.2	14	24	270	0.00	1025.503	8	0.000	0
20080425 07:30	8.2	5.6	8.2	87	6.2	16	32	270	0.20	1025.537	10	0.000	0
20080425 07:35	8.2	5.2	8.2	87	6.2	19	34	270	0.00	1025.672	15	0.000	0
20080425 07:40	8.1	5.3	8.1	88	6.2	18	31	270	0.00	1025.977	6	0.000	0
20080425 07:45	7.9	4.6	7.9	88	6.0	21	42	292	0.40	1026.011	10	0.000	0
20080425 07:50	7.6	3.5	7.6	87	5.5	29	47	292	0.20	1026.045	14	0.000	0
20080425 07:55	7.2	3.5	7.2	87	5.2	24	37	292	0.20	1026.282	21	0.000	0
20080425 08:00	7.1	3.3	7.1	87	5.0	24	40	315	0.20	1026.451	35	0.020	0
20080425 08:05	7.0	3.3	7.0	88	5.1	23	39	292	0.00	1026.722	50	0.000	0
20080425 08:10	6.9	3.4	6.9	89	5.3	21	37	292	0.20	1026.925	26	0.000	0
20080425 08:15	6.9	3.9	6.9	89	5.2	16	27	292	0.20	1026.959	20	0.000	0
20080425 08:20	6.8	4.1	6.8	90	5.3	14	32	292	0.20	1026.858	31	0.000	0
20080425 08:25	6.8	3.8	6.8	89	5.1	16	31	315	0.00	1026.959	49	0.000	0
20080425 08:30	6.7	4.2	6.7	89	5.0	13	26	292	0.00	1027.095	40	0.000	0
20080425 08:35	6.7	4.7	6.7	89	5.0	10	19	292	0.20	1027.095	37	0.000	0
20080425 08:40	6.7	5.1	6.7	90	5.1	8	19	270	0.00	1027.162	24	0.000	0
20080425 08:45	6.6	5.0	6.6	90	5.1	8	16	270	0.20	1027.196	20	0.000	0
20080425 08:50	6.6	4.0	6.6	89	4.9	13	32	270	0.20	1027.230	23	0.000	0
20080425 08:55	6.5	4.5	6.5	89	4.8	10	29	270	0.00	1027.230	50	0.000	0
20080425 09:00	6.5	4.9	6.5	88	4.7	8	16	270	0.00	1027.095	54	0.020	0
20080425 09:05	6.6	6.6	6.6	88	4.7	5	14	270	0.00	1027.128	69	0.000	0
20080425 09:10	6.6	6.6	6.6	89	4.9	5	10	270	0.20	1027.128	49	0.000	0
20080425 09:15	6.6	6.6	6.6	89	4.9	5	8	247	0.00	1027.128	69	0.000	0
20080425 09:20	6.6	6.6	6.6	89	4.9	5	10	270	0.00	1027.162	75	0.000	0
20080425 09:25	6.7	6.7	6.7	89	5.0	5	8	247	0.00	1027.162	59	0.000	0
20080425 09:30	6.7	6.7	6.7	88	4.8	5	8	247	0.00	1027.162	75	0.000	0
20080425 09:35	6.7	6.7	6.7	89	5.0	5	6	270	0.00	1027.162	80	0.000	0
20080425 09:40	6.8	6.8	6.8	90	5.3	3	11	270	0.00	1027.264	75	0.000	0
20080425 09:45	6.8	6.8	6.8	89	5.1	5	11	247	0.00	1027.264	91	0.000	0
20080425 09:50	6.9	5.8	6.9	89	5.2	6	10	247	0.00	1027.196	114	0.000	1
20080425 09:55	7.0	5.9	7.0	89	5.3	6	11	247	0.00	1026.993	147	0.000	1
20080425 10:00	7.2	6.1	7.2	89	5.5	6	11	270	0.00	1027.128	156	0.040	1
20080425 10:05	7.2	6.2	7.2	89	5.5	6	11	270	0.00	1027.298	164	0.000	1
20080425 10:10	7.4	6.4	7.4	89	5.7	6	14	247	0.00	1027.467	171	0.000	1
20080425 10:15	7.4	6.4	7.4	88	5.6	6	16	247	0.00	1027.501	181	0.000	1
20080425 10:20	7.6	6.5	7.6	87	5.5	6	14	247	0.00	1027.433	221	0.000	2
20080425 10:25	7.8	6.4	7.8	87	5.8	8	19	247	0.00	1027.467	534	0.000	2
20080425 10:30	8.1	6.4	8.1	86	5.9	10	18	247	0.00	1027.365	529	0.000	3
20080425 10:35	8.4	6.8	8.4	86	6.2	10	23	247	0.00	1027.670	582	0.000	3
20080425 10:40	8.7	7.2	8.7	84	6.2	10	18	247	0.00	1027.535	642	0.000	3
20080425 10:45	8.9	7.4	8.9	84	6.4	10	19	247	0.00	1027.535	734	0.000	3
20080425 10:50	9.0	7.5	9.0	82	6.1	10	21	247	0.00	1027.636	277	0.000	2
20080425 10:55	8.9	7.7	8.9	82	6.0	8	16	247	0.00	1027.670	201	0.000	2
20080425 11:00	8.9	7.4	8.9	80	5.6	10	24	247	0.00	1027.603	314	0.140	2
20080425 11:05	9.0	7.5	9.0	82	6.1	10	19	247	0.00	1027.772	326	0.000	3
20080425 11:10	9.4	8.7	9.4	82	6.5	6	19	247	0.00	1027.636	793	0.000	4
20080425 11:15	9.7	8.4	9.7	81	6.6	10	26	247	0.00	1027.603	370	0.000	2
20080425 11:20	9.7	9.1	9.7	80	6.4	6	16	247	0.00	1027.636	361	0.000	3
20080425 11:25	9.6	8.9	9.6	79	6.1	6	16	270	0.00	1027.636	261	0.000	2
20080425 11:30	9.6	8.5	9.6	79	6.1	8	16	247	0.00	1027.636	212	0.000	2
20080425 11:35	9.3	8.2	9.3	79	5.9	8	18	247	0.00	1027.569	114	0.000	1
20080425 11:40	9.2	8.5	9.2	79	5.8	6	14	247	0.00	1027.569	95	0.000	1
20080425 11:45	9.2	8.0	9.2	80	5.9	8	18	247	0.00	1027.603	156	0.000	1
20080425 11:50	9.2	7.7	9.2	80	5.9	10	23	247	0.00	1027.636	150	0.000	1
20080425 11:55	9.3	8.2	9.3	81	6.2	8	14	247	0.00	1027.569	255	0.000	3
20080425 12:00	9.7	8.0	9.7	79	6.2	11	26	247	0.00	1027.569	385	0.120	2
20080425 12:05	9.8	8.4	9.8	76	5.7	10	19	270	0.00	1027.603	215	0.000	2
20080425 12:10	9.8	8.4	9.8	75	5.6	10	23	270	0.00	1027.501	129	0.000	1
20080425 12:15	9.7	8.3	9.7	75	5.5	10	19	247	0.00	1027.535	197	0.000	2
20080425 12:20	9.8	8.4	9.8	75	5.6	10	23	270	0.00	1027.535	445	0.000	3
20080425 12:25	10.0	10.0	10.0	75	5.8	10	19	247	0.00	1027.636	270	0.000	2
20080425 12:30	9.4	6.5	9.4	73	4.8	23	42	292	0.80	1028.043	39	0.000	0
20080425 12:35	7.8	5.0	7.8	76	3.8	16	31	315	1.40	1028.077	32	0.000	0
20080425 12:40	6.9	5.0	6.9	80	3.7	10	31	247	0.40	1027.907	53	0.000	0
20080425 12:45	6.9	5.4	6.9	83	4.2	8	18	247	0.00	1027.975	163	0.000	2
20080425 12:50	7.2	6.1	7.2	85	4.8	6	11	247	0.00	1027.806	175	0.000	2
20080425 12:55	7.4	6.0	7.4	84	4.9	8	19	247	0.00	1027.772	133	0.000	2
20080425 13:00	7.7	6.3	7.7	84	5.2	8	13	270	0.00	1027.704	197	0.080	3
20080425 13:05	8.3	7.4	8.3	84	5.7	6	14	247	0.00	1027.433	520	0.000	4
20080425 13:10	8.8	8.0	8.8	81	5.7	6	19	247	0.00	1027.264	342	0.000	4
20080425 13:15	9.3	7.9	9.3	84	6.8	10	19	270	0.00	1027.128	669	0.000	5
20080425 13:20	10.2	10.2	10.2	81	7.1	11	23	270	0.00	1026.891	800	0.000	6
20080425 13:25	10.7	10.7	10.7	80	7.4	8	19	270	0.00	1026.824	742	0.000	5
20080425 13:30	11.2	11.2	11.2	77	7.3	11	21	270	0.00	1026.587	769	0.000	5
20080425 13:35	11.5	11.5	11.5	78	7.8	10	19	270	0.00	1026.519	915	0.000	5
20080425 13:40	11.8	11.8	11.8	76	7.7	8	18	292	0.00	1026.553	353	0.000	4
20080425 13:45	12.3	12.3	12.3	73	7.6	10	21	292	0.00	1026.451	927	0.000	4
20080425 13:50	12.6	12.6	12.6	68	6.8	11	24	270	0.00	1026.417	933	0.000	5
20080425 13:55	12.3	12.3	12.3	64	5.7	16	32	292	0.00	1026.553	282	0.000	3
20080425 14:00	11.8	11.8	11.8	63	5.0	13	23	292	0.00	1026.587	170	0.240	2
20080425 14:05	11.1	11.1	11.1	62	4.1	29	60	292	0.00	1026.993	128	0.000	1
20080425 14:10	9.7	6.7	9.7	61	2.5	23	47	270	0.40	1027.162	141	0.000	1
20080425 14:15	9.4	7.7	9.4	65	3.1	11	24	292	0.00	1027.095	251	0.000	2
20080425 14:20	9.6	7.7	9.6	71	4.6	13	24	315	0.00	1027.061	422	0.000	4
20080425 14:25	10.1	10.1	10.1	73	5.5	8	18	292	0.00	1026.891	741	0.000	5
20080425 14:30	10.8	10.8	10.8	70	5.6	10	19	292	0.00	1026.891	737	0.000	5
20080425 14:35	11.4	11.4	11.4	70	6.1	13	24	315	0.00	1026.722	717	0.000	5
20080425 14:40	11.8	11.8	11.8	65	5.5	13	27	292	0.00	1026.722	739	0.000	4
20080425 14:45	12.0	12.0	12.0	64	5.4	13	29	292	0.00	1026.620	301	0.000	3
20080425 14:50	11.8	11.8	11.8	59	4.1	18	29	292	0.00	1026.587	262	0.000	3
20080425 14:55	11.6	11.6	11.6	60	4.1	19	34	315	0.00	1026.688	227	0.000	3
20080425 15:00	11.5	11.5	11.5	63	4.7	14	29	292	0.00	1026.587	284	0.200	3
20080425 15:05	11.9	11.9	11.9	63	5.1	14	26	292	0.00	1026.451	740	0.000	4
20080425 15:10	12.3	12.3	12.3	60	4.8	14	27	292	0.00	1026.350	733	0.000	4
20080425 15:15	12.7	12.7	12.7	56	4.2	16	27	292	0.00	1026.113	752	0.000	4
20080425 15:20	13.0	13.0	13.0	59	5.2	11	23	292	0.00	1026.146	759	0.000	4
20080425 15:25	13.1	13.1	13.1	57	4.7	11	31	292	0.00	1026.113	213	0.000	3
20080425 15:30	12.8	12.8	12.8	62	5.7	10	23	315	0.00	1026.045	215	0.000	2
20080425 15:35	12.9	12.9	12.9	62	5.8	11	27	292	0.00	1026.079	501	0.000	3
20080425 15:40	13.0	13.0	13.0	59	5.2	19	37	292	0.00	1026.079	382	0.000	2
20080425 15:45	12.6	12.6	12.6	62	5.5	16	34	292	0.00	1026.350	102	0.000	1
20080425 15:50	11.8	11.8	11.8	64	5.2	8	19	315	0.00	1026.519	113	0.000	1
20080425 15:55	11.2	11.2	11.2	64	4.7	8	16	337	0.00	1026.587	176	0.000	1
20080425 16:00	11.0	11.0	11.0	68	5.3	5	8	315	0.00	1026.587	127	0.200	2
20080425 16:05	11.0	11.0	11.0	66	4.9	8	18	315	0.00	1026.451	178	0.000	2
20080425 16:10	11.6	11.6	11.6	65	5.2	8	16	315	0.00	1026.417	675	0.000	3
20080425 16:15	12.3	12.3	12.3	61	5.0	10	18	292	0.00	1026.316	610	0.000	3
20080425 16:20	12.8	12.8	12.8	58	4.7	13	23	315	0.00	1026.282	333	0.000	2
20080425 16:25	12.5	12.5	12.5	59	4.7	10	23	292	0.00	1026.383	110	0.000	2
20080425 16:30	12.4	12.4	12.4	61	5.1	11	24	270	0.00	1026.350	593	0.000	2
20080425 16:35	12.8	12.8	12.8	56	4.3	14	26	292	0.00	1026.316	601	0.000	2
20080425 16:40	13.4	13.4	13.4	54	4.3	13	23	270	0.00	1026.146	615	0.000	2
20080425 16:45	13.7	13.7	13.7	52	4.0	16	31	292	0.00	1026.180	590	0.000	2
20080425 16:50	13.7	13.7	13.7	52	4.0	13	24	270	0.00	1026.180	576	0.000	2
20080425 16:55	13.1	13.1	13.1	51	3.2	13	23	270	0.00	1026.214	89	0.000	1
20080425 17:00	12.6	12.6	12.6	54	3.5	13	26	292	0.00	1026.451	59	0.200	0
20080425 17:05	11.4	11.4	11.4	65	5.1	14	34	315	0.00	1026.756	37	0.000	0
20080425 17:10	10.2	10.2	10.2	70	4.9	8	18	0	0.00	1026.891	33	0.000	0
20080425 17:15	9.7	9.7	9.7	73	5.1	5	10	337	0.40	1026.790	59	0.000	0
20080425 17:20	9.5	9.5	9.5	74	5.1	5	8	292	0.00	1026.959	51	0.000	0
20080425 17:25	9.5	9.5	9.5	76	5.5	5	8	292	0.00	1027.061	96	0.000	0
20080425 17:30	9.8	8.5	9.8	73	5.2	10	19	292	0.00	1026.756	360	0.000	1
20080425 17:35	10.5	10.5	10.5	72	5.7	8	21	315	0.00	1026.824	459	0.000	1
20080425 17:40	11.2	11.2	11.2	71	6.2	8	16	270	0.00	1026.620	435	0.000	1
20080425 17:45	11.8	11.8	11.8	69	6.3	8	16	292	0.00	1026.620	394	0.000	1
20080425 17:50	12.1	12.1	12.1	68	6.4	10	19	292	0.00	1026.519	345	0.000	1
20080425 17:55	12.1	12.1	12.1	67	6.2	8	16	292	0.00	1026.553	115	0.000	0
20080425 18:00	11.8	11.8	11.8	68	6.1	13	31	292	0.00	1026.790	38	0.100	0
20080425 18:05	11.2	11.2	11.2	67	5.3	19	35	292	0.00	1026.959	56	0.000	0
20080425 18:10	10.4	10.4	10.4	70	5.2	24	37	292	0.20	1027.061	56	0.000	0
20080425 18:15	9.9	7.0	9.9	69	4.5	23	50	292	0.00	1027.162	114	0.000	0
20080425 18:20	9.7	8.1	9.7	69	4.3	11	43	292	0.00	1027.196	89	0.000	0
20080425 18:25	9.7	8.4	9.7	68	4.1	10	18	315	0.00	1027.095	81	0.000	0
20080425 18:30	9.7	9.1	9.7	70	4.5	6	10	292	0.00	1027.095	74	0.000	0
20080425 18:35	9.8	9.1	9.8	70	4.6	6	11	270	0.00	1026.959	78	0.000	0
20080425 18:40	9.9	9.2	9.9	69	4.5	6	14	270	0.00	1026.959	77	0.000	0
20080425 18:45	10.0	10.0	10.0	67	4.2	6	14	270	0.00	1026.959	75	0.000	0
20080425 18:50	10.1	10.1	10.1	68	4.5	6	10	270	0.00	1026.993	85	0.000	0
20080425 18:55	10.3	10.3	10.3	66	4.2	6	14	270	0.00	1027.061	98	0.000	0
20080425 19:00	10.4	10.4	10.4	67	4.6	6	14	270	0.00	1027.095	93	0.060	0
20080425 19:05	10.6	10.6	10.6	66	4.5	8	11	270	0.00	1026.993	78	0.000	0
20080425 19:10	10.5	10.5	10.5	67	4.6	8	14	270	0.00	1027.095	67	0.000	0
20080425 19:15	10.4	10.4	10.4	69	5.0	6	10	270	0.00	1027.095	54	0.000	0
20080425 19:20	10.3	10.3	10.3	69	4.9	5	8	270	0.00	1027.095	28	0.000	0
20080425 19:25	10.2	10.2	10.2	70	5.0	5	10	270	0.00	1027.095	24	0.000	0
20080425 19:30	10.2	10.2	10.2	70	4.9	5	10	270	0.00	1027.230	22	0.000	0
20080425 19:35	10.1	10.1	10.1	72	5.2	3	8	292	0.00	1027.230	20	0.000	0
20080425 19:40	9.9	9.9	9.9	71	4.9	3	6	270	0.00	1027.332	16	0.000	0
20080425 19:45	9.9	9.9	9.9	72	5.1	5	8	292	0.00	1027.433	17	0.000	0
20080425 19:50	9.8	9.8	9.8	72	5.0	2	5	292	0.00	1027.535	14	0.000	0
20080425 19:55	9.7	9.7	9.7	73	5.1	2	5	292	0.00	1027.569	12	0.000	0
20080425 20:00	9.6	9.6	9.6	72	4.8	2	5	292	0.00	1027.535	8	0.020	0
20080425 20:05	9.6	9.6	9.6	73	5.0	3	5	292	0.00	1027.738	4	0.000	0
20080425 20:10	9.5	9.5	9.5	74	5.1	3	6	270	0.00	1027.840	0	0.000	0
20080425 20:15	9.4	9.4	9.4	74	5.0	3	6	270	0.00	1027.941	0	0.000	0
20080425 20:20	9.3	9.3	9.3	74	4.9	5	10	292	0.00	1028.077	0	0.000	0
20080425 20:25	9.3	8.2	9.3	74	4.9	8	18	22	0.00	1028.314	0	0.000	0
20080425 20:30	9.3	8.2	9.3	72	4.5	8	16	22	0.00	1028.415	0	0.000	0
20080425 20:35	9.2	8.4	9.2	72	4.4	6	18	0	0.00	1028.754	0	0.000	0
20080425 20:40	8.8	6.8	8.8	73	4.3	13	27	0	0.00	1029.059	0	0.000	0
20080425 20:45	8.2	5.6	8.2	80	5.0	16	34	22	0.40	1029.126	0	0.000	0
20080425 20:50	7.6	4.6	7.6	81	4.6	18	29	45	0.20	1029.126	0	0.000	0
20080425 20:55	7.2	4.2	7.2	84	4.7	18	24	67	0.00	1029.194	0	0.000	0
20080425 21:00	7.1	6.0	7.1	84	4.6	6	14	67	0.00	1029.093	0	0.020	0
20080425 21:05	7.1	7.1	7.1	82	4.2	5	18	112	0.00	1028.855	0	0.000	0
20080425 21:10	7.1	7.1	7.1	83	4.4	3	6	112	0.00	1028.855	0	0.000	0
20080425 21:15	7.1	7.1	7.1	83	4.4	3	6	112	0.00	1028.889	0	0.000	0
20080425 21:20	7.1	7.1	7.1	84	4.5	0	5	157	0.00	1028.889	0	0.000	0
20080425 21:25	7.0	7.0	7.0	84	4.5	0	2	157	0.00	1028.991	0	0.000	0
20080425 21:30	6.9	6.9	6.9	85	4.6	0	3	157	0.00	1029.126	0	0.000	0
20080425 21:35	6.8	6.8	6.8	86	4.7	2	6	157	0.00	1029.397	0	0.000	0
20080425 21:40	6.8	6.8	6.8	87	4.8	2	3	157	0.00	1029.465	0	0.000	0
20080425 21:45	6.7	6.7	6.7	87	4.7	2	5	157	0.00	1029.465	0	0.000	0
20080425 21:50	6.7	6.7	6.7	87	4.7	0	3	157	0.00	1029.499	0	0.000	0
20080425 21:55	6.7	6.7	6.7	88	4.9	0	3	157	0.00	1029.465	0	0.000	0
20080425 22:00	6.8	6.8	6.8	88	4.9	0	2	157	0.00	1029.465	0	0.000	0
20080425 22:05	6.8	6.8	6.8	88	4.9	0	3	157	0.00	1029.160	0	0.000	0
20080425 22:10	6.7	6.7	6.7	88	4.9	0	3	157	0.00	1029.126	0	0.000	0
20080425 22:15	6.6	6.6	6.6	87	4.6	3	10	157	0.00	1029.228	0	0.000	0
20080425 22:20	6.5	6.5	6.5	88	4.7	3	10	202	0.00	1029.228	0	0.000	0
20080425 22:25	6.4	6.4	6.4	87	4.4	3	11	202	0.00	1029.330	0	0.000	0
20080425 22:30	6.3	6.3	6.3	87	4.3	5	11	202	0.00	1029.431	0	0.000	0
20080425 22:35	6.3	6.3	6.3	87	4.3	5	10	202	0.00	1029.499	0	0.000	0
20080425 22:40	6.2	6.2	6.2	87	4.2	3	10	180	0.00	1029.397	0	0.000	0
20080425 22:45	6.3	6.3	6.3	86	4.1	3	10	202	0.00	1029.363	0	0.000	0
20080425 22:50	6.3	6.3	6.3	86	4.1	5	8	180	0.00	1029.431	0	0.000	0
20080425 22:55	6.3	6.3	6.3	86	4.1	3	8	180	0.00	1029.330	0	0.000	0
20080425 23:00	6.3	6.3	6.3	86	4.1	2	6	180	0.00	1029.363	0	0.000	0
20080425 23:05	6.3	6.3	6.3	87	4.3	0	2	180	0.00	1029.228	0	0.000	0
20080425 23:10	6.2	6.2	6.2	87	4.2	0	3	180	0.00	1029.194	0	0.000	0
20080425 23:15	6.2	6.2	6.2	87	4.2	2	6	180	0.00	1029.194	0	0.000	0
20080425 23:20	6.2	6.2	6.2	87	4.2	3	8	180	0.00	1029.194	0	0.000	0
20080425 23:25	6.2	6.2	6.2	92	5.0	3	8	202	0.00	1029.126	0	0.000	0
20080425 23:30	6.3	6.3	6.3	88	4.4	3	8	225	0.00	1029.093	0	0.000	0
20080425 23:35	6.3	6.3	6.3	88	4.4	3	10	225	0.00	1029.194	0	0.000	0
20080425 23:40	6.2	6.2	6.2	88	4.4	3	14	225	0.00	1029.194	0	0.000	0
20080425 23:45	6.2	6.2	6.2	92	5.0	5	10	202	0.00	1029.126	0	0.000	0
20080425 23:50	6.2	6.2	6.2	88	4.3	3	10	202	0.00	1029.194	0	0.000	0
20080425 23:55	6.2	6.2	6.2	88	4.3	3	11	202	0.00	1029.228	0	0.000	0
20080425 24:00	6.2	6.2	6.2	88	4.3	3	10	202	0.00	1029.228	0	0.000	0



Please note the license to use and transfer of this data:
http://creativecommons.org/licenses/by-nc-sa/3.0/deed.en

Bitte beachten sie die Lizenz zur Verwertung und Weitergabe der Daten:
http://creativecommons.org/licenses/by-nc-sa/3.0/deed.de

zurück zur Übersicht der Archivdaten (Monats und Tagesdaten)

Cookies helfen bei der Bereitstellung von Inhalten. Durch die Nutzung dieser Seiten erklärst du dich damit einverstanden, dass Cookies auf deinem Rechner gespeichert werden. Weitere Information